»·PEaware :: N416JK KSBA-KTPH

N416JK :: KSBA-KTPH

FLIGHT INFORMATION

Flight Status: Arrived
Operator: Privately registered:
United States
More flights under this callsign
Pilot: John K. (4202)
Aircraft: Unknown
(EPIC)
More flights by this aircraft type
Origin: KSBA Santa Barbara Mun
United States
Destination: KTPH Tonopah
United States
More flights between these airports :: More routes between these airports
Route: RZS V183 EHF V165 EXTRA V459 FRA V230 NIKOL V244 ELFES
File this flight plan on PilotEdge
Remarks:
Altitude:
(Current/Filed)
21,000ft
Speed:
(Current/Filed)
300kts
Departed: 31-Jul-20 09:41 AM
Arrived: 31-Jul-20 11:02 AM
Distance/Time
Traveled:
255nm/1:21
Distance/Time
To Go:
Arrived

Flight Plot

Page will automatically refresh every two minutes.


Map Options




Map Legend


Flown Route
Filed Route
Departure Airport
Arrival Airport
Navaid (VOR, NDB)
Fix

Horizontal Profiles

Position Reports

Time Latitude Longitude Heading Altitude Ground
Speed
31-Jul-20 09:25 34.432435 -119.835551 70 17ft 0kts
31-Jul-20 09:26 34.432435 -119.835551 70 17ft 0kts
31-Jul-20 09:27 34.432435 -119.835551 70 17ft 0kts
31-Jul-20 09:28 34.432435 -119.835551 70 17ft 0kts
31-Jul-20 09:29 34.432435 -119.835551 70 17ft 0kts
31-Jul-20 09:30 34.432435 -119.835551 70 17ft 0kts
31-Jul-20 09:32 34.432435 -119.835551 70 17ft 0kts
31-Jul-20 09:33 34.432435 -119.835551 70 17ft 0kts
31-Jul-20 09:34 34.432435 -119.835551 70 17ft 0kts
31-Jul-20 09:35 34.432435 -119.835551 70 17ft 0kts
31-Jul-20 09:36 34.432435 -119.835551 70 17ft 0kts
31-Jul-20 09:37 34.432435 -119.835551 70 17ft 0kts
31-Jul-20 09:38 34.429826 -119.835280 179 17ft 29kts
31-Jul-20 09:39 34.428949 -119.835237 174 17ft 0kts
31-Jul-20 09:40 34.427750 -119.837794 270 17ft 35kts
31-Jul-20 09:41 34.426968 -119.885520 259 628ft 229kts
31-Jul-20 09:42 34.417562 -119.970466 262 1886ft 255kts
31-Jul-20 09:43 34.411819 -120.047689 262 2935ft 217kts
31-Jul-20 09:44 34.407308 -120.118807 262 4430ft 207kts
31-Jul-20 09:45 34.436810 -120.159220 32 5909ft 216kts
31-Jul-20 09:46 34.461798 -120.097422 72 7416ft 204kts
31-Jul-20 09:47 34.471299 -120.027098 83 8078ft 236kts
31-Jul-20 09:48 34.482555 -119.950580 83 9563ft 237kts
31-Jul-20 09:49 34.494775 -119.869507 83 11220ft 248kts
31-Jul-20 09:50 34.507214 -119.786445 83 13430ft 250kts
31-Jul-20 09:50 34.550419 -119.742605 28 15269ft 253kts
31-Jul-20 09:52 34.620072 -119.695491 28 17833ft 240kts
31-Jul-20 09:52 34.667162 -119.663314 28 19658ft 228kts
31-Jul-20 09:53 34.722724 -119.625256 29 21007ft 252kts
31-Jul-20 09:55 34.802641 -119.570398 29 21003ft 301kts
31-Jul-20 09:55 34.864638 -119.527777 29 21002ft 312kts
31-Jul-20 09:56 34.940761 -119.475302 29 21002ft 316kts
31-Jul-20 09:57 35.017669 -119.422193 29 21039ft 319kts
31-Jul-20 09:58 35.095355 -119.368423 29 21039ft 322kts
31-Jul-20 09:59 35.173053 -119.314541 30 21035ft 322kts
31-Jul-20 10:00 35.249658 -119.261329 30 21036ft 323kts
31-Jul-20 10:01 35.327581 -119.207081 29 21035ft 320kts
31-Jul-20 10:02 35.404888 -119.153086 29 21036ft 320kts
31-Jul-20 10:03 35.482287 -119.099262 24 21029ft 320kts
31-Jul-20 10:04 35.569973 -119.082096 7 21036ft 319kts
31-Jul-20 10:05 35.657713 -119.066521 7 21033ft 319kts
31-Jul-20 10:06 35.745673 -119.050816 7 21028ft 319kts
31-Jul-20 10:07 35.833394 -119.035110 7 21028ft 317kts
31-Jul-20 10:08 35.920050 -119.023945 343 21030ft 313kts
31-Jul-20 10:09 36.001070 -119.062595 337 21037ft 312kts
31-Jul-20 10:10 36.082188 -119.101247 337 21038ft 312kts
31-Jul-20 10:11 36.163094 -119.139823 337 21035ft 312kts
31-Jul-20 10:12 36.243918 -119.178461 337 21026ft 312kts
31-Jul-20 10:13 36.324692 -119.217140 337 21026ft 311kts
31-Jul-20 10:14 36.405393 -119.255903 337 21026ft 311kts
31-Jul-20 10:15 36.486318 -119.294896 336 21027ft 312kts
31-Jul-20 10:16 36.567319 -119.333991 336 21027ft 312kts
31-Jul-20 10:17 36.648350 -119.373184 336 21027ft 312kts
31-Jul-20 10:18 36.729474 -119.412513 336 21027ft 312kts
31-Jul-20 10:19 36.811642 -119.452431 336 21027ft 313kts
31-Jul-20 10:20 36.892586 -119.491861 336 21027ft 313kts
31-Jul-20 10:21 36.973647 -119.531439 336 21028ft 313kts
31-Jul-20 10:22 37.055272 -119.571368 336 21028ft 313kts
31-Jul-20 10:23 37.134987 -119.565060 41 21032ft 318kts
31-Jul-20 10:24 37.202985 -119.492730 40 21025ft 318kts
31-Jul-20 10:25 37.271208 -119.421215 40 21060ft 317kts
31-Jul-20 10:26 37.339518 -119.349525 40 21331ft 312kts
31-Jul-20 10:27 37.406953 -119.278616 40 21392ft 315kts
31-Jul-20 10:28 37.475570 -119.206275 40 20627ft 330kts
31-Jul-20 10:29 37.546542 -119.131308 39 19221ft 329kts
31-Jul-20 10:30 37.616412 -119.057309 40 17804ft 322kts
31-Jul-20 10:31 37.685568 -118.983881 40 16388ft 320kts
31-Jul-20 10:32 37.753542 -118.911506 41 15398ft 314kts
31-Jul-20 10:33 37.820409 -118.840099 40 15394ft 317kts
31-Jul-20 10:34 37.887981 -118.767808 40 15394ft 318kts
31-Jul-20 10:35 37.955328 -118.695443 42 15393ft 317kts
31-Jul-20 10:36 37.971467 -118.589282 88 15395ft 310kts
31-Jul-20 10:37 37.976039 -118.478445 88 15112ft 315kts
31-Jul-20 10:38 37.980564 -118.368220 88 14911ft 308kts
31-Jul-20 10:39 37.984693 -118.265970 90 13930ft 287kts
31-Jul-20 10:40 37.988571 -118.166380 88 12932ft 279kts
31-Jul-20 10:41 37.992345 -118.068704 88 11936ft 276kts
31-Jul-20 10:42 37.996026 -117.971174 88 11299ft 262kts
31-Jul-20 10:43 37.999321 -117.882004 88 11398ft 243kts
31-Jul-20 10:44 38.002404 -117.796585 88 11400ft 240kts
31-Jul-20 10:45 38.005645 -117.712070 88 11400ft 239kts
31-Jul-20 10:46 38.008943 -117.627051 88 11400ft 240kts
31-Jul-20 10:47 38.022332 -117.548386 39 11406ft 225kts
31-Jul-20 10:48 38.072184 -117.496814 39 10702ft 227kts
31-Jul-20 10:49 38.117513 -117.449501 39 10697ft 187kts
31-Jul-20 10:50 38.154004 -117.411319 39 10696ft 158kts
31-Jul-20 10:51 38.186650 -117.377117 39 10696ft 144kts
31-Jul-20 10:52 38.216690 -117.345606 40 10701ft 140kts
31-Jul-20 10:53 38.231529 -117.301549 105 10350ft 164kts
31-Jul-20 10:54 38.221301 -117.245457 104 9640ft 156kts
31-Jul-20 10:55 38.212144 -117.194028 104 8773ft 149kts
31-Jul-20 10:56 38.187649 -117.154539 135 7950ft 137kts
31-Jul-20 10:57 38.164897 -117.127314 161 7400ft 104kts
31-Jul-20 10:58 38.133231 -117.115212 165 6783ft 125kts
31-Jul-20 10:59 38.099571 -117.103617 164 6114ft 125kts
31-Jul-20 11:00 38.065807 -117.092155 165 5429ft 113kts
31-Jul-20 11:01 38.057516 -117.092385 190 5411ft 7kts

Navigation Log

Ident Type
Flight plan parsing failed, navigation log unavailable